This is the latest recevied weather packets stored in our database for station/object WY7EM. If no packets are shown the sender has not sent any weather packets the latest 1 day(s).
| Time | Temp. | Humidity | Pressure | Rain* | Wind** | Luminosity | Snow |
|---|---|---|---|---|---|---|---|
| 1778030176 | 21.11° C | 18% | 1006 hPa | 0 mm | - | 44 W/m² | - |
| 1778029872 | 20.56° C | 18% | 1006.1 hPa | 0 mm | - | 61 W/m² | - |
| 1778029571 | 21.11° C | 18% | 1006.1 hPa | 0 mm | - | 83 W/m² | - |
| 1778029268 | 21.11° C | 18% | 1005.7 hPa | 0 mm | - | 94 W/m² | - |
| 1778028965 | 21.67° C | 18% | 1006 hPa | 0 mm | - | 114 W/m² | - |
| 1778028661 | 21.11° C | 18% | 1005.8 hPa | 0 mm | - | 132 W/m² | - |
| 1778028358 | 21.67° C | 18% | 1005.8 hPa | 0 mm | - | 147 W/m² | - |
| 1778028055 | 21.11° C | 18% | 1005.7 hPa | 0 mm | - | 166 W/m² | - |
| 1778027751 | 21.67° C | 19% | 1005.7 hPa | 0 mm | - | 188 W/m² | - |
| 1778027143 | 21.67° C | 19% | 1005.6 hPa | 0 mm | - | 244 W/m² | - |
| 1778026536 | 21.67° C | 19% | 1005.7 hPa | 0 mm | - | 299 W/m² | - |
| 1778024114 | 22.22° C | 20% | 1005.7 hPa | 0 mm | - | 451 W/m² | - |
| 1778023509 | 22.78° C | 20% | 1005.7 hPa | 0 mm | - | 465 W/m² | - |
| 1778021692 | 21.11° C | 21% | 1006 hPa | 0 mm | - | 80 W/m² | - |
| 1778021388 | 21.67° C | 21% | 1006.1 hPa | 0 mm | - | 551 W/m² | - |
| 1778021085 | 22.78° C | 19% | 1006.1 hPa | 0 mm | - | 565 W/m² | - |
| 1778020782 | 21.67° C | 20% | 1006.1 hPa | 0 mm | - | 573 W/m² | - |
| 1778020479 | 21.67° C | 20% | 1006.2 hPa | 0 mm | - | 588 W/m² | - |
| 1778019872 | 21.67° C | 21% | 1006.2 hPa | 0 mm | - | 613 W/m² | - |
| 1778018055 | 21.11° C | 22% | 1007 hPa | 0 mm | - | 381 W/m² | - |
| 1778017147 | 22.22° C | 20% | 1007 hPa | 0 mm | - | 753 W/m² | - |
| 1778015934 | 21.11° C | 22% | 1007.6 hPa | 0 mm | - | 795 W/m² | - |
| 1778014420 | 20.56° C | 23% | 1008 hPa | 0 mm | - | 849 W/m² | - |
| 1778012297 | 20.56° C | 22% | 1008.2 hPa | 0 mm | - | 872 W/m² | - |
| 1778011693 | 20.56° C | 22% | 1008.3 hPa | 0 mm | - | 875 W/m² | - |
* Rain latest hour (hover to see other rain measurements)
** Current wind speed in m/s (hover to see current wind gust speed)